createdAt,value
2023-05-09T00:03:59.344Z,97800.97
2023-05-09T00:08:03.278Z,97807.22
2023-05-09T00:12:06.738Z,97804.31
2023-05-09T00:16:10.476Z,97800.78
2023-05-09T00:20:13.357Z,97791.81
2023-05-09T00:24:17.437Z,97801.59
2023-05-09T00:28:20.054Z,97782.84
2023-05-09T00:32:22.761Z,97784.97
2023-05-09T00:36:25.533Z,97781.03
2023-05-09T00:40:29.566Z,97778.31
2023-05-09T00:44:32.213Z,97780.22
2023-05-09T00:48:34.851Z,97776.25
2023-05-09T00:52:38.167Z,97773.75
2023-05-09T00:56:42.269Z,97772.50
2023-05-09T01:00:44.875Z,97768.97
2023-05-09T01:04:48.110Z,97771.84
2023-05-09T01:08:59.866Z,97770.81
2023-05-09T01:13:07.290Z,97772.44
2023-05-09T01:17:17.296Z,97765.38
2023-05-09T01:21:25.427Z,97758.28
2023-05-09T01:25:39.052Z,97746.88
2023-05-09T01:29:45.991Z,97757.31
2023-05-09T01:33:57.698Z,97755.00
2023-05-09T01:38:00.616Z,97747.56
2023-05-09T01:42:05.716Z,97754.66
2023-05-09T01:46:10.921Z,97753.19
2023-05-09T01:50:13.791Z,97741.53
2023-05-09T01:54:17.949Z,97740.06
2023-05-09T01:58:22.259Z,97740.25
2023-05-09T02:02:27.084Z,97743.38
2023-05-09T02:06:31.168Z,97733.81
2023-05-09T02:10:35.189Z,97735.09
2023-05-09T02:14:37.852Z,97730.34
2023-05-09T02:18:41.769Z,97725.94
2023-05-09T02:22:45.239Z,97731.38
2023-05-09T02:26:48.038Z,97724.28
2023-05-09T02:30:53.242Z,97719.72
2023-05-09T02:34:59.161Z,97718.66
2023-05-09T02:39:02.258Z,97720.94
2023-05-09T02:43:05.070Z,97724.69
2023-05-09T02:47:08.458Z,97731.56
2023-05-09T02:51:12.408Z,97727.88
2023-05-09T02:55:15.242Z,97724.75
2023-05-09T02:59:19.940Z,97712.25
2023-05-09T03:03:23.467Z,97714.16
2023-05-09T03:07:27.458Z,97713.25
2023-05-09T03:11:30.758Z,97699.34
2023-05-09T03:15:33.342Z,97698.94
2023-05-09T03:19:35.984Z,97695.38
2023-05-09T03:23:40.337Z,97700.19
2023-05-09T03:27:42.923Z,97711.81
2023-05-09T03:31:46.170Z,97700.16
2023-05-09T03:35:48.846Z,97696.22
2023-05-09T03:39:52.789Z,97696.03
2023-05-09T03:43:55.429Z,97704.34
2023-05-09T03:47:58.068Z,97697.66
2023-05-09T03:52:00.687Z,97694.75
2023-05-09T03:56:04.673Z,97692.25
2023-05-09T04:00:10.385Z,97690.63
2023-05-09T04:04:13.361Z,97685.59
2023-05-09T04:08:16.341Z,97693.94
2023-05-09T04:12:20.284Z,97688.09
2023-05-09T04:16:22.948Z,97686.84
2023-05-09T04:20:25.586Z,97689.56
2023-05-09T04:24:28.183Z,97691.84
2023-05-09T04:28:32.432Z,97685.22
2023-05-09T04:32:35.862Z,97691.66
2023-05-09T04:36:38.563Z,97690.38
2023-05-09T04:40:41.132Z,97691.63
2023-05-09T04:44:45.188Z,97694.97
2023-05-09T04:48:47.789Z,97690.00
2023-05-09T04:52:50.406Z,97694.97
2023-05-09T04:56:53.264Z,97689.34
2023-05-09T05:01:00.060Z,97690.59
2023-05-09T05:05:11.635Z,97680.81
2023-05-09T05:09:15.007Z,97676.84
2023-05-09T05:13:17.643Z,97671.44
2023-05-09T05:17:21.940Z,97675.78
2023-05-09T05:21:24.590Z,97675.34
2023-05-09T05:25:27.447Z,97675.97
2023-05-09T05:29:30.084Z,97676.38
2023-05-09T05:33:34.064Z,97680.09
2023-05-09T05:37:36.648Z,97678.63
2023-05-09T05:41:39.267Z,97689.16
2023-05-09T05:45:41.906Z,97676.41
2023-05-09T05:49:46.602Z,97677.22
2023-05-09T05:53:49.614Z,97666.91
2023-05-09T05:57:52.649Z,97658.72
2023-05-09T06:01:55.292Z,97661.28
2023-05-09T06:05:59.310Z,97654.13
2023-05-09T06:10:01.928Z,97649.69
2023-05-09T06:14:04.597Z,97654.38
2023-05-09T06:18:09.013Z,97658.97
2023-05-09T06:22:13.038Z,97649.28
2023-05-09T06:26:16.587Z,97652.59
2023-05-09T06:30:26.200Z,97647.25
2023-05-09T06:34:29.766Z,97645.56
2023-05-09T06:38:35.596Z,97647.56
2023-05-09T06:42:38.570Z,97642.25
2023-05-09T06:46:41.679Z,97634.63
2023-05-09T06:50:44.494Z,97643.19
2023-05-09T06:54:48.528Z,97642.41
2023-05-09T06:58:51.570Z,97642.13
2023-05-09T07:02:54.201Z,97635.69
2023-05-09T07:06:56.860Z,97628.22
2023-05-09T07:11:00.817Z,97619.19
2023-05-09T07:15:03.460Z,97616.56
2023-05-09T07:19:06.133Z,97618.03
2023-05-09T07:23:08.772Z,97605.25
2023-05-09T07:27:12.712Z,97608.81
2023-05-09T07:31:15.322Z,97603.75
2023-05-09T07:35:18.544Z,97599.13
2023-05-09T07:39:21.543Z,97603.38
2023-05-09T07:43:25.521Z,97589.31
2023-05-09T07:47:28.264Z,97586.56
2023-05-09T07:51:32.090Z,97573.63
2023-05-09T07:55:34.707Z,97571.38
2023-05-09T07:59:38.691Z,97565.13
2023-05-09T08:03:41.539Z,97564.78
2023-05-09T08:07:44.535Z,97569.28
2023-05-09T08:11:47.141Z,97564.34
2023-05-09T08:15:51.235Z,97565.53
2023-05-09T08:19:53.940Z,97554.22
2023-05-09T08:23:56.972Z,97541.84
2023-05-09T08:28:00.521Z,97532.94
2023-05-09T08:32:05.544Z,97533.81
2023-05-09T08:36:08.541Z,97519.34
2023-05-09T08:40:11.797Z,97516.09
2023-05-09T08:44:14.592Z,97509.03
2023-05-09T08:48:19.250Z,97512.44
2023-05-09T08:52:22.558Z,97502.16
2023-05-09T08:56:26.541Z,97510.50
2023-05-09T09:00:30.689Z,97504.19
2023-05-09T09:04:34.689Z,97512.13
2023-05-09T09:08:37.534Z,97502.00
2023-05-09T09:12:41.773Z,97500.09
2023-05-09T09:16:47.562Z,97490.84
2023-05-09T09:20:56.534Z,97485.81
2023-05-09T09:24:59.116Z,97487.78
2023-05-09T09:29:01.909Z,97478.09
2023-05-09T09:33:07.818Z,97468.03
2023-05-09T09:37:23.507Z,97464.63
2023-05-09T09:41:31.639Z,97455.13
2023-05-09T09:45:34.300Z,97445.00
2023-05-09T09:49:36.946Z,97445.72
2023-05-09T09:53:44.888Z,97435.22
2023-05-09T09:57:48.368Z,97424.41
2023-05-09T10:01:56.011Z,97427.72
2023-05-09T10:06:02.623Z,97403.53
2023-05-09T10:10:07.727Z,97401.94
2023-05-09T10:14:10.731Z,97392.97
2023-05-09T10:18:19.787Z,97394.38
2023-05-09T10:22:24.778Z,97396.84
2023-05-09T10:26:36.550Z,97381.84
2023-05-09T10:30:45.259Z,97385.44
2023-05-09T10:34:52.384Z,97370.06
2023-05-09T10:38:56.431Z,97363.47
2023-05-09T10:43:00.412Z,97364.31
2023-05-09T10:47:03.713Z,97359.16
2023-05-09T10:51:08.482Z,97364.00
2023-05-09T10:55:11.383Z,97344.34
2023-05-09T10:59:41.295Z,97334.16
2023-05-09T11:03:55.507Z,97326.16
2023-05-09T11:08:19.150Z,97318.69
2023-05-09T11:12:24.982Z,97311.88
2023-05-09T11:16:29.028Z,97300.81
2023-05-09T11:20:35.142Z,97293.41
2023-05-09T11:24:39.479Z,97281.59
2023-05-09T11:28:42.055Z,97283.44
2023-05-09T11:32:48.039Z,97279.19
2023-05-09T11:36:50.677Z,97270.63
2023-05-09T11:40:56.014Z,97257.09
2023-05-09T11:44:58.886Z,97245.28
2023-05-09T11:49:04.447Z,97241.59
2023-05-09T11:53:08.527Z,97231.69
2023-05-09T11:57:11.694Z,97229.81
2023-05-09T12:01:14.396Z,97215.25
2023-05-09T12:05:20.175Z,97206.78
2023-05-09T12:09:22.959Z,97198.44
2023-05-09T12:13:25.576Z,97198.78
2023-05-09T12:17:28.316Z,97192.34
2023-05-09T12:21:33.101Z,97179.44
2023-05-09T12:25:35.843Z,97171.31
2023-05-09T12:29:40.317Z,97164.19
2023-05-09T12:33:43.186Z,97165.75
2023-05-09T12:37:58.885Z,97166.00
2023-05-09T12:42:02.319Z,97153.84
2023-05-09T12:46:05.652Z,97146.13
2023-05-09T12:50:11.559Z,97139.84
2023-05-09T12:54:20.454Z,97145.47
2023-05-09T12:58:23.104Z,97138.81
2023-05-09T13:02:27.439Z,97125.78
2023-05-09T13:06:30.836Z,97115.81
2023-05-09T13:10:34.888Z,97108.50
2023-05-09T13:14:38.451Z,97099.50
2023-05-09T13:18:41.046Z,97097.56
2023-05-09T13:22:44.812Z,97086.59
2023-05-09T13:26:48.730Z,97090.97
2023-05-09T13:30:51.490Z,97083.19
2023-05-09T13:34:54.246Z,97069.59
2023-05-09T13:38:57.396Z,97067.81
2023-05-09T13:43:01.365Z,97049.81
2023-05-09T13:47:04.162Z,97049.00
2023-05-09T13:51:07.840Z,97037.91
2023-05-09T13:55:11.006Z,97038.19
2023-05-09T13:59:15.018Z,97035.16
2023-05-09T14:03:17.788Z,97029.31
2023-05-09T14:07:20.457Z,97027.41
2023-05-09T14:11:23.490Z,97017.44
2023-05-09T14:15:27.495Z,96999.53
2023-05-09T14:19:30.302Z,97005.03
2023-05-09T14:23:32.954Z,96998.41
2023-05-09T14:27:36.923Z,96997.63
2023-05-09T14:31:41.031Z,96990.03
2023-05-09T14:35:43.680Z,96985.81
2023-05-09T14:39:46.837Z,96983.03
2023-05-09T14:43:49.696Z,96971.69
2023-05-09T14:47:53.735Z,96964.19
2023-05-09T14:51:56.411Z,96972.97
2023-05-09T14:55:59.379Z,96961.69
2023-05-09T15:00:13.066Z,96959.94
2023-05-09T15:04:28.179Z,96948.28
2023-05-09T15:08:30.930Z,96939.06
2023-05-09T15:12:33.548Z,96941.94
2023-05-09T15:16:36.234Z,96932.75
2023-05-09T15:20:40.446Z,96929.13
2023-05-09T15:24:44.236Z,96926.81
2023-05-09T15:28:46.870Z,96919.44
2023-05-09T15:32:49.543Z,96914.34
2023-05-09T15:36:53.506Z,96905.75
2023-05-09T15:40:56.632Z,96892.91
2023-05-09T15:44:59.223Z,96890.44
2023-05-09T15:49:01.851Z,96881.75
2023-05-09T15:53:06.423Z,96873.91
2023-05-09T15:57:10.675Z,96870.59
2023-05-09T16:01:14.533Z,96865.34
2023-05-09T16:05:17.367Z,96864.41
2023-05-09T16:09:22.342Z,96850.28
2023-05-09T16:13:25.041Z,96850.69
2023-05-09T16:17:27.843Z,96846.03
2023-05-09T16:21:32.967Z,96832.78
2023-05-09T16:25:37.058Z,96831.63
2023-05-09T16:29:40.344Z,96824.09
2023-05-09T16:33:43.935Z,96812.31
2023-05-09T16:37:46.688Z,96814.03
2023-05-09T16:41:50.782Z,96811.13
2023-05-09T16:45:54.385Z,96811.94
2023-05-09T16:49:56.995Z,96805.72
2023-05-09T16:53:59.612Z,96802.03
2023-05-09T16:58:03.677Z,96802.44
2023-05-09T17:02:06.520Z,96795.25
2023-05-09T17:06:09.328Z,96782.00
2023-05-09T17:10:12.458Z,96785.41
2023-05-09T17:14:16.469Z,96786.25
2023-05-09T17:18:29.138Z,96779.53
2023-05-09T17:22:39.344Z,96774.25
2023-05-09T17:26:41.948Z,96775.09
2023-05-09T17:30:46.266Z,96776.13
2023-05-09T17:34:48.889Z,96776.13
2023-05-09T17:38:51.470Z,96764.28
2023-05-09T17:42:54.171Z,96767.13
2023-05-09T17:46:58.894Z,96760.31
2023-05-09T17:51:01.596Z,96757.34
2023-05-09T17:55:05.097Z,96756.63
2023-05-09T17:59:07.990Z,96742.50
2023-05-09T18:03:12.122Z,96751.69
2023-05-09T18:07:15.063Z,96744.09
2023-05-09T18:11:24.513Z,96734.41
2023-05-09T18:15:27.512Z,96730.28
2023-05-09T18:19:31.570Z,96732.53
2023-05-09T18:23:34.245Z,96727.16
2023-05-09T18:27:36.849Z,96719.28
2023-05-09T18:31:41.441Z,96723.41
2023-05-09T18:35:45.501Z,96719.91
2023-05-09T18:39:48.882Z,96724.34
2023-05-09T18:43:51.515Z,96717.03
2023-05-09T18:47:54.173Z,96711.34
2023-05-09T18:52:00.113Z,96710.88
2023-05-09T18:56:02.795Z,96715.78
2023-05-09T19:00:06.372Z,96710.88
2023-05-09T19:04:09.133Z,96715.56
2023-05-09T19:08:13.077Z,96708.16
2023-05-09T19:12:16.401Z,96707.88
2023-05-09T19:16:21.666Z,96707.88
2023-05-09T19:20:25.047Z,96701.59
2023-05-09T19:24:29.059Z,96702.97
2023-05-09T19:28:31.686Z,96708.72
2023-05-09T19:32:34.309Z,96712.53
2023-05-09T19:36:37.416Z,96715.25
2023-05-09T19:40:42.151Z,96714.44
2023-05-09T19:44:45.250Z,96713.34
2023-05-09T19:48:47.846Z,96719.31
2023-05-09T19:52:50.687Z,96714.38
2023-05-09T19:56:54.663Z,96710.22
2023-05-09T20:00:57.277Z,96711.25
2023-05-09T20:05:00.384Z,96710.16
2023-05-09T20:09:03.001Z,96713.94
2023-05-09T20:13:06.989Z,96707.88
2023-05-09T20:17:09.804Z,96711.38
2023-05-09T20:21:13.275Z,96706.56
2023-05-09T20:25:15.968Z,96708.84
2023-05-09T20:29:20.005Z,96709.25
2023-05-09T20:33:22.655Z,96711.19
2023-05-09T20:37:25.259Z,96704.91
2023-05-09T20:41:27.991Z,96709.56
2023-05-09T20:45:32.129Z,96703.63
2023-05-09T20:49:34.773Z,96699.25
2023-05-09T20:53:37.766Z,96696.50
2023-05-09T20:57:40.449Z,96703.25
2023-05-09T21:01:44.561Z,96703.75
2023-05-09T21:05:47.158Z,96702.84
2023-05-09T21:09:50.763Z,96700.56
2023-05-09T21:13:53.365Z,96703.53
2023-05-09T21:17:57.414Z,96699.94
2023-05-09T21:22:00.127Z,96698.25
2023-05-09T21:26:03.254Z,96689.78
2023-05-09T21:30:07.172Z,96694.66
2023-05-09T21:34:11.110Z,96707.75
2023-05-09T21:38:13.961Z,96706.34
2023-05-09T21:42:16.581Z,96703.06
2023-05-09T21:46:19.247Z,96695.59
2023-05-09T21:50:23.536Z,96694.97
2023-05-09T21:54:26.185Z,96695.19
2023-05-09T21:58:28.812Z,96703.34
2023-05-09T22:02:31.757Z,96710.97
2023-05-09T22:06:35.784Z,96709.66
2023-05-09T22:10:38.698Z,96710.00
2023-05-09T22:14:52.527Z,96716.09
2023-05-09T22:18:55.863Z,96715.31
2023-05-09T22:22:59.798Z,96720.50
2023-05-09T22:27:02.483Z,96735.47
2023-05-09T22:31:06.516Z,96749.28
2023-05-09T22:35:09.955Z,96770.91
2023-05-09T22:39:14.129Z,96774.59
2023-05-09T22:43:16.788Z,96771.75
2023-05-09T22:47:19.399Z,96773.97
2023-05-09T22:51:22.717Z,96762.09
2023-05-09T22:55:26.675Z,96760.25
2023-05-09T22:59:29.250Z,96746.91
2023-05-09T23:03:31.970Z,96740.09
2023-05-09T23:07:34.580Z,96727.78
2023-05-09T23:11:38.573Z,96729.59
2023-05-09T23:15:41.203Z,96722.00
2023-05-09T23:19:43.831Z,96718.06
2023-05-09T23:23:46.584Z,96708.31
2023-05-09T23:27:50.626Z,96710.25
2023-05-09T23:31:53.241Z,96697.44
2023-05-09T23:35:56.058Z,96710.78
2023-05-09T23:39:58.985Z,96700.84
2023-05-09T23:44:03.451Z,96704.25
2023-05-09T23:48:07.191Z,96701.38
2023-05-09T23:52:09.940Z,96690.84
2023-05-09T23:56:12.565Z,96690.56
